Observations for Trim Market St
| Time | AQI | Temp °C | Hum % | Pres Pa | CO μg/m³ | H₂S μg/m³ | NO μg/m³ | NO₂ μg/m³ | O₃ μg/m³ | SO₂ μg/m³ | PM1 μg/m³ | PM2.5 μg/m³ | PM10 μg/m³ |
|---|---|---|---|---|---|---|---|---|---|---|---|---|---|
| Thursday 27 August 2026 | |||||||||||||
| 06:32 | 2 | 18 | 84 | 2,147,483,647 | 0.31 | 0 | 2.16 | 2.45 | 51.04 | 0 | 17.1 | 19.15 | 29.75 |
| 06:29 | 2 | 17.9 | 84 | 2,147,483,647 | 0.31 | 0 | 2.15 | 1.49 | 62.37 | 0 | 18.53 | 21.47 | 33.54 |
| 06:27 | 2 | 17.9 | 84 | 2,147,483,647 | 0.33 | 0 | 2.15 | 1.84 | 50.94 | 0 | 18.53 | 20.08 | 29.75 |
| 06:22 | 2 | 17.9 | 84 | 2,147,483,647 | 0.31 | 0 | 2.15 | 1.73 | 55.32 | 0 | 17.81 | 19.14 | 29.18 |
| 06:17 | 2 | 17.8 | 84 | 2,147,483,647 | 0.33 | 0 | 2.2 | 2.82 | 53.25 | 0 | 17.81 | 20.06 | 30.78 |
| 06:14 | 2 | 17.8 | 84 | 2,147,483,647 | 0.32 | 0 | 2.15 | 1.83 | 63.95 | 0 | 18.53 | 20.06 | 31.86 |
| 06:12 | 2 | 17.8 | 85 | 2,147,483,647 | 0.31 | 0 | 2.16 | 1.62 | 56.27 | 0 | 17.81 | 20.51 | 30.75 |
| 06:11 | 2 | 17.8 | 85 | 2,147,483,647 | 0.32 | 0 | 2.17 | 2.04 | 55.02 | 0 | 18.53 | 20.05 | 29.67 |
| 06:10 | 2 | 17.8 | 85 | 2,147,483,647 | 0.33 | 0 | 2.17 | 2.77 | 61.99 | 0 | 19.24 | 21.91 | 33.46 |
| 06:09 | 2 | 17.7 | 85 | 2,147,483,647 | 0.32 | 0 | 2.16 | 2.22 | 56.06 | 0 | 18.53 | 19.58 | 29.67 |
| 06:06 | 2 | 17.8 | 85 | 2,147,483,647 | 0.32 | 0 | 2.16 | 1.85 | 56.09 | 0 | 18.53 | 20.51 | 32.37 |
| 06:04 | 2 | 17.7 | 85 | 2,147,483,647 | 0.32 | 0 | 2.15 | 2.76 | 56.86 | 0 | 17.1 | 18.65 | 28.59 |
| 06:03 | 2 | 17.7 | 85 | 2,147,483,647 | 0.32 | 0 | 2.18 | 1.49 | 53.91 | 0 | 18.53 | 19.12 | 30.75 |
| 06:02 | 2 | 17.7 | 85 | 2,147,483,647 | 0.32 | 0 | 2.19 | 2.51 | 61.18 | 0 | 19.24 | 20.51 | 31.29 |
| 06:01 | 2 | 17.7 | 85 | 2,147,483,647 | 0.32 | 0 | 2.17 | 2.77 | 59.99 | 0 | 17.81 | 19.58 | 31.29 |
| 06:00 | 2 | 17.7 | 85 | 2,147,483,647 | 0.32 | 0 | 2.21 | 4.16 | 59.52 | 0 | 19.24 | 20.5 | 31.81 |
| 05:59 | 2 | 17.7 | 85 | 2,147,483,647 | 0.31 | 0 | 2.21 | 1.29 | 47.15 | 0 | 15.68 | 18.64 | 28.57 |
| 05:56 | 2 | 17.7 | 85 | 2,147,483,647 | 0.4 | 0 | 2.17 | 2.96 | 56.64 | 0 | 19.24 | 20.5 | 31.27 |
| 05:55 | 2 | 17.7 | 85 | 2,147,483,647 | 0.33 | 0 | 2.19 | 2.32 | 59.68 | 0 | 16.39 | 17.24 | 26.93 |
| 05:54 | 2 | 17.7 | 85 | 2,147,483,647 | 0.33 | 0 | 2.19 | 2.32 | 56.22 | 0 | 17.1 | 19.56 | 31.24 |